• Join FlightAware (Why Join?)
  • Login
  • US Flag 
07:53PM EDT


 

Airport Tracker/Info


-or-


 

Live Flight TrackerFlight Track Log ✈ AWE3397 ✈ 29-Apr-2013 ✈ KPHL - KMSY

Flight Track Log - Related Links

Times and Time Zones

All times are in EDT time to prevent confusion due to time zone crossing. See the AWE3397 flight status page for this flight to view local times or setup timezone preferences in your user account.

Time Position Orientation Groundspeed Altitude Reporting Facility
EDT Latitude Longitude Course Direction KTS MPH feet Rate Location/Type
08:27AM 39.8833 -75.2167 261° West 149 171 1,000  Level Philadelphia TRACON
08:28AM 39.8833 -75.2000 90° East 160 184 1,400 1,560 Climbing Philadelphia TRACON
08:29AM 39.9167 -75.1333 57° Northeast 242 278 3,200 1,740 Climbing Philadelphia TRACON
08:30AM 39.8334 -75.7280 270° West  Level FlightAware Approximate
08:30AM 39.9833 -75.1667 339° North 285 328 4,900  Level Philadelphia TRACON
08:31AM 39.8215 -75.8543 258° West  Level FlightAware Approximate
08:31AM 40.0000 -75.2500 285° West 258 297 7,500  Level Philadelphia TRACON
08:32AM 39.8007 -75.9793 258° West  Level FlightAware Approximate
08:32AM 39.9667 -75.3333 242° Southwest 274 315 9,700  Level Philadelphia TRACON
08:33AM 39.7868 -76.1057 261° West  Level FlightAware Approximate
08:33AM 39.9333 -75.4333 247° West 299 344 10,000  Level Philadelphia TRACON
08:34AM 39.9072 -75.5256 250° West 315 362 10,000 660 Level New York Center
08:35AM 39.8825 -75.6186 251° West 317 365 11,300 1,620 Climbing New York Center
08:36AM 39.8547 -75.7358 253° West 311 358 13,400 1,860 Climbing New York Center
08:37AM 39.8339 -75.8342 255° West 311 358 15,200 1,860 Climbing New York Center
08:38AM 39.8203 -75.9550 262° West 316 364 17,200 1,560 Climbing New York Center
08:39AM 39.8069 -76.0703 261° West 321 369 18,400 1,260 Climbing New York Center
08:41AM 39.7364 -76.3361 251° West 335 386 21,600 1,320 Climbing Washington Center
08:42AM 39.6961 -76.4492 245° Southwest 347 399 23,000 1,320 Climbing Washington Center
08:43AM 39.6494 -76.5617 242° Southwest 347 399 24,300 1,200 Climbing Washington Center
08:44AM 39.6089 -76.6744 245° Southwest 352 405 25,500 1,320 Climbing Washington Center
08:45AM 39.5639 -76.7867 243° Southwest 352 405 27,000 1,260 Climbing Washington Center
08:46AM 39.5231 -76.9017 245° Southwest 352 405 28,100 960 Climbing Washington Center
08:47AM 39.4678 -77.0056 235° Southwest 352 405 29,000 840 Climbing Washington Center
08:48AM 39.3897 -77.0872 219° Southwest 352 405 29,800 900 Climbing Washington Center
08:49AM 39.3117 -77.1714 220° Southwest 364 419 30,800 1,080 Climbing Washington Center
08:50AM 39.2311 -77.2556 219° Southwest 370 426 32,000 960 Climbing Washington Center
08:51AM 39.1550 -77.3369 220° Southwest 375 432 32,800 1,020 Climbing Washington Center
08:52AM 39.0767 -77.4178 219° Southwest 369 425 34,100 1,080 Climbing Washington Center
08:53AM 39.0025 -77.4933 218° Southwest 359 413 35,000 660 Climbing Washington Center
08:54AM 38.9219 -77.5794 220° Southwest 353 406 35,500 360 Climbing Washington Center
08:55AM 38.8456 -77.6600 219° Southwest 358 412 35,800 240 Climbing Washington Center
08:56AM 38.7692 -77.7378 218° Southwest 363 418 36,000 60 Climbing Washington Center
08:57AM 38.6906 -77.8178 218° Southwest 363 418 36,000  Level Washington Center
08:58AM 38.6331 -77.8825 221° Southwest 358 412 36,000  Level Washington Center
08:59AM 38.5619 -78.0053 233° Southwest 352 405 36,000  Level Washington Center
09:00AM 38.5036 -78.1042 233° Southwest 358 412 36,000  Level Washington Center
09:01AM 38.4431 -78.2028 232° Southwest 363 418 36,000  Level Washington Center
09:02AM 38.3889 -78.2964 234° Southwest 363 418 36,000  Level Washington Center
09:03AM 38.3303 -78.3972 233° Southwest 363 418 36,000  Level Washington Center
09:04AM 38.2717 -78.4983 234° Southwest 363 418 36,000  Level Washington Center
09:05AM 38.2106 -78.6042 234° Southwest 358 412 36,000  Level Washington Center
09:06AM 38.1517 -78.7022 233° Southwest 358 412 36,000  Level Washington Center
09:07AM 38.0972 -78.7922 232° Southwest 358 412 36,000  Level Washington Center
09:08AM 38.0361 -78.8925 232° Southwest 358 412 36,000  Level Washington Center
09:09AM 37.9750 -78.9925 232° Southwest 358 412 36,000  Level Washington Center
09:10AM 37.9092 -79.1028 233° Southwest 358 412 36,000  Level Washington Center
09:11AM 37.8539 -79.2081 236° Southwest 358 412 36,000  Level Washington Center
09:12AM 37.8025 -79.3161 239° Southwest 364 419 36,000  Level Washington Center
09:13AM 37.7492 -79.4236 238° Southwest 369 425 36,000  Level Washington Center
09:14AM 37.6894 -79.5308 235° Southwest 369 425 36,000  Level Washington Center
09:15AM 37.6422 -79.6281 238° Southwest 374 430 36,000  Level Washington Center
09:16AM 37.5819 -79.7508 238° Southwest 374 430 36,000  Level Washington Center
09:17AM 37.5258 -79.8628 238° Southwest 386 444 36,000  Level Washington Center
09:20AM 37.3906 -80.1208 237° Southwest 380 437 36,000  Level Atlanta Center
09:21AM 37.3278 -80.2442 237° Southwest 380 437 36,000  Level Atlanta Center
09:22AM 37.2708 -80.3539 237° Southwest 380 437 36,000  Level Atlanta Center
09:23AM 37.2136 -80.4686 238° Southwest 380 437 36,000  Level Atlanta Center
09:24AM 37.1564 -80.5753 236° Southwest 380 437 36,000  Level Atlanta Center
09:25AM 37.1050 -80.6764 238° Southwest 380 437 36,000  Level Atlanta Center
09:26AM 37.0561 -80.7956 243° Southwest 380 437 36,000  Level Atlanta Center
09:27AM 37.0133 -80.9169 246° West 380 437 36,000  Level Atlanta Center
09:28AM 36.9703 -81.0331 245° Southwest 380 437 36,000  Level Atlanta Center
09:29AM 36.9236 -81.1672 247° West 380 437 36,000  Level Atlanta Center
09:30AM 36.8783 -81.2881 245° Southwest 385 443 36,000  Level Atlanta Center
09:31AM 36.8372 -81.4089 247° West 385 443 36,000  Level Atlanta Center
09:32AM 36.7917 -81.5297 245° Southwest 385 443 36,000  Level Atlanta Center
09:33AM 36.7564 -81.6369 248° West 379 436 36,000  Level Atlanta Center
09:34AM 36.7128 -81.7547 245° Southwest 379 436 36,000  Level Atlanta Center
09:35AM 36.6689 -81.8750 246° West 379 436 36,000  Level Atlanta Center
09:36AM 36.6253 -81.9978 246° West 384 442 36,000  Level Atlanta Center
09:37AM 36.5753 -82.1308 245° Southwest 378 435 36,000  Level Atlanta Center
09:38AM 36.5292 -82.2536 245° Southwest 386 444 36,000  Level Atlanta Center
09:39AM 36.4850 -82.3706 245° Southwest 386 444 36,000  Level Atlanta Center
09:40AM 36.4386 -82.4931 245° Southwest 386 444 36,000  Level Atlanta Center
09:41AM 36.3942 -82.6150 246° West 386 444 36,000  Level Atlanta Center
09:42AM 36.3497 -82.7344 245° Southwest 386 444 36,000  Level Atlanta Center
09:43AM 36.3028 -82.8536 244° Southwest 386 444 36,000  Level Atlanta Center
09:44AM 36.2581 -82.9753 246° West 386 444 36,000  Level Atlanta Center
09:45AM 36.2131 -83.0917 244° Southwest 386 444 36,000  Level Atlanta Center
09:46AM 36.1681 -83.2131 245° Southwest 386 444 36,000  Level Atlanta Center
09:47AM 36.1208 -83.3344 244° Southwest 386 444 36,000  Level Atlanta Center
09:48AM 36.0756 -83.4531 245° Southwest 386 444 36,000  Level Atlanta Center
09:49AM 36.0281 -83.5714 244° Southwest 386 444 36,000  Level Atlanta Center
09:50AM 35.9847 -83.6897 246° West 386 444 36,000  Level Atlanta Center
09:51AM 35.9392 -83.8106 245° Southwest 381 438 36,000  Level Atlanta Center
09:52AM 35.8914 -83.9261 243° Southwest 386 444 36,000  Level Atlanta Center
09:53AM 35.8456 -84.0489 245° Southwest 386 444 36,000  Level Atlanta Center
09:54AM 35.7744 -84.1489 229° Southwest 391 450 36,000  Level Atlanta Center
09:55AM 35.6994 -84.2483 227° Southwest 396 456 36,000  Level Atlanta Center
09:56AM 35.6261 -84.3506 229° Southwest 401 461 36,000  Level Atlanta Center
09:57AM 35.5528 -84.4497 228° Southwest 401 461 36,000  Level Atlanta Center
09:58AM 35.4919 -84.5311 227° Southwest 401 461 36,000  Level Atlanta Center
09:59AM 35.4100 -84.6403 227° Southwest 401 461 36,000  Level Atlanta Center
10:00AM 35.3367 -84.7414 228° Southwest 401 461 36,000  Level Atlanta Center
10:01AM 35.2631 -84.8375 227° Southwest 396 456 36,000  Level Atlanta Center
10:02AM 35.1872 -84.9383 227° Southwest 396 456 36,000  Level Atlanta Center
10:03AM 35.1156 -85.0367 228° Southwest 396 456 36,000  Level Atlanta Center
10:04AM 35.0394 -85.1347 227° Southwest 396 456 36,000  Level Atlanta Center
10:05AM 34.9678 -85.2300 227° Southwest 396 456 36,000  Level Atlanta Center
10:06AM 34.8936 -85.3303 228° Southwest 396 456 36,000  Level Atlanta Center
10:07AM 34.8194 -85.4278 227° Southwest 396 456 36,000  Level Atlanta Center
10:08AM 34.7433 -85.5250 226° Southwest 396 456 36,000  Level Atlanta Center
10:09AM 34.6689 -85.6222 227° Southwest 396 456 36,000  Level Atlanta Center
10:10AM 34.5947 -85.7219 228° Southwest 396 456 36,000  Level Atlanta Center
10:11AM 34.5161 -85.8236 227° Southwest 388 447 36,000  Level Atlanta Center
10:12AM 34.4372 -85.9203 225° Southwest 388 447 36,000  Level Atlanta Center
10:13AM 34.3606 -86.0192 227° Southwest 394 453 36,000  Level Atlanta Center
10:14AM 34.2881 -86.1156 228° Southwest 394 453 36,000  Level Atlanta Center
10:15AM 34.2114 -86.2117 226° Southwest 399 459 36,000  Level Atlanta Center
10:16AM 34.1344 -86.3075 226° Southwest 399 459 36,000  Level Atlanta Center
10:17AM 34.0597 -86.4033 227° Southwest 399 459 36,000  Level Atlanta Center
10:18AM 33.9847 -86.5014 227° Southwest 394 453 36,000  Level Atlanta Center
10:19AM 33.9053 -86.5992 226° Southwest 394 453 36,000  Level Atlanta Center
10:20AM 33.8281 -86.6994 227° Southwest 399 459 36,000  Level Atlanta Center
10:21AM 33.7508 -86.7919 225° Southwest 399 459 36,000  Level Atlanta Center
10:22AM 33.6778 -86.8894 228° Southwest 399 459 36,000  Level Atlanta Center
10:23AM 33.6064 -86.9919 230° Southwest 399 459 36,000  Level Atlanta Center
10:24AM 33.5372 -87.0967 232° Southwest 404 465 36,000  Level Atlanta Center
10:25AM 33.4697 -87.2014 232° Southwest 404 465 36,000  Level Atlanta Center
10:26AM 33.4003 -87.3033 231° Southwest 409 471 36,000  Level Atlanta Center
10:27AM 33.3308 -87.4053 231° Southwest 409 471 36,000  Level Atlanta Center
10:28AM 33.2631 -87.5119 233° Southwest 409 471 36,000  Level Atlanta Center
10:29AM 33.1956 -87.6108 231° Southwest 409 471 36,000  Level Atlanta Center
10:30AM 33.1197 -87.7206 230° Southwest 408 470 36,000  Level Memphis Center
10:31AM 33.0531 -87.8217 232° Southwest 408 470 36,000  Level Memphis Center
10:32AM 32.9864 -87.9253 233° Southwest 401 461 36,000  Level Memphis Center
10:33AM 32.9192 -88.0236 231° Southwest 396 456 36,000  Level Memphis Center
10:34AM 32.8522 -88.1242 232° Southwest 401 461 36,000  Level Memphis Center
10:35AM 32.7808 -88.2272 231° Southwest 401 461 36,000  Level Memphis Center
10:36AM 32.7117 -88.3278 231° Southwest 401 461 36,000  Level Memphis Center
10:37AM 32.6381 -88.4306 230° Southwest 401 461 36,000  Level Memphis Center
10:38AM 32.5686 -88.5331 231° Southwest 406 467 36,000  Level Memphis Center
10:39AM 32.4950 -88.6356 230° Southwest 406 467 36,000  Level Memphis Center
10:40AM 32.4275 -88.7378 232° Southwest 401 461 36,000 -540 Level Memphis Center
10:41AM 32.3494 -88.8328 226° Southwest 401 461 35,000 -540 Descending Memphis Center
10:42AM 32.2647 -88.9178 220° Southwest 401 461 35,000  Level Memphis Center
10:43AM 32.1800 -89.0000 219° Southwest 401 461 35,000  Level Memphis Center
10:45AM 32.0006 -89.1711 219° Southwest 403 464 35,000 -420 Level Houston Center
10:46AM 31.9128 -89.2544 219° Southwest 406 467 33,700 -1,680 Descending Houston Center
10:47AM 31.8283 -89.3378 220° Southwest 402 463 31,600 -2,280 Descending Houston Center
10:48AM 31.7142 -89.4228 212° Southwest 406 467 29,000 -2,340 Descending Houston Center
10:49AM 31.6150 -89.4886 209° Southwest 410 472 26,800 -2,100 Descending Houston Center
10:50AM 31.5114 -89.5600 210° Southwest 404 465 24,700 -1,740 Descending Houston Center
10:51AM 31.4181 -89.6225 210° Southwest 392 451 23,300 -1,380 Descending Houston Center
10:52AM 31.3256 -89.6833 209° Southwest 385 443 21,900 -1,380 Descending Houston Center
10:53AM 31.2364 -89.7433 210° Southwest 375 432 20,500 -1,380 Descending Houston Center
10:54AM 31.1478 -89.8011 209° Southwest 367 422 19,100 -1,320 Descending Houston Center
10:55AM 31.0611 -89.8589 210° Southwest 361 415 17,800 -1,380 Descending Houston Center
10:56AM 30.9608 -89.9261 210° Southwest 350 403 16,300 -1,320 Descending Houston Center
10:57AM 30.8783 -89.9792 209° Southwest 342 394 15,100 -1,200 Descending Houston Center
10:58AM 30.7967 -90.0336 210° Southwest 340 391 13,800 -1,200 Descending Houston Center
10:59AM 30.7161 -90.0861 209° Southwest 335 386 12,600 -1,320 Descending Houston Center
11:00AM 30.6697 -90.1172 210° Southwest 329 379 11,900 -1,200 Descending Houston Center
11:00AM 30.6383 -90.1372 209° Southwest 326 375 11,400 -840 Descending Houston Center
11:01AM 30.5919 -90.1661 208° Southwest 323 372 11,100 -900 Descending Houston Center
11:01AM 30.5406 -90.1756 189° South 321 369 10,500 -1,320 Descending Houston Center
11:02AM 30.4900 -90.1850 189° South 290 334 9,500 -1,500 Descending Houston Center
11:02AM 30.4617 -90.1886 186° South 293 337 9,000 -1,440 Descending Houston Center
11:03AM 30.4361 -90.1919 186° South 282 325 8,500 -1,500 Descending Houston Center
11:03AM 30.3864 -90.2008 189° South 278 320 7,500 -1,740 Descending Houston Center
11:04AM 30.3469 -90.2150 197° South 268 308 6,400 -2,040 Descending Houston Center
11:04AM 30.3161 -90.2272 199° South 268 308 5,400 -1,980 Descending Houston Center
11:05AM 30.2747 -90.2467 202° Southwest 279 321 4,400 -1,380 Descending Houston Center
11:06AM 30.2447 -90.2600 201° Southwest 273 314 4,000 -780 Descending Houston Center
11:06AM 30.1942 -90.2836 202° Southwest 269 310 3,600 -900 Descending Houston Center
11:07AM 30.1625 -90.2975 201° Southwest 271 312 3,100 -660 Descending Houston Center
11:07AM 30.1406 -90.3075 202° Southwest 265 305 3,100 -120 Level Houston Center
11:08AM 30.0933 -90.3289 201° Southwest 268 308 3,000 -120 Descending Houston Center
11:08AM 30.0706 -90.3389 201° Southwest 237 273 3,000  Level Houston Center
11:09AM 30.0364 -90.3492 195° South 244 281 3,000 -120 Level Houston Center
11:10AM 29.9789 -90.3486 180° South 220 253 2,800 -240 Descending Houston Center